sensor_id;sensor_type;location;lat;lon;timestamp;pressure;altitude;pressure_sealevel;temperature;humidity
15308;BME280;7755;52.208;6.964;2022-10-29T00:00:09;101752.69;;;16.52;100.00
15308;BME280;7755;52.208;6.964;2022-10-29T00:04:11;101756.28;;;16.52;100.00
15308;BME280;7755;52.208;6.964;2022-10-29T00:08:13;101757.06;;;16.48;100.00
15308;BME280;7755;52.208;6.964;2022-10-29T00:12:15;101757.53;;;16.45;100.00
15308;BME280;7755;52.208;6.964;2022-10-29T00:16:21;101745.75;;;16.44;100.00
15308;BME280;7755;52.208;6.964;2022-10-29T00:20:23;101759.97;;;16.41;100.00
15308;BME280;7755;52.208;6.964;2022-10-29T00:24:25;101763.22;;;16.38;100.00
15308;BME280;7755;52.208;6.964;2022-10-29T00:28:27;101757.69;;;16.33;100.00
15308;BME280;7755;52.208;6.964;2022-10-29T00:32:30;101761.19;;;16.28;100.00
15308;BME280;7755;52.208;6.964;2022-10-29T00:36:32;101764.66;;;16.24;100.00
15308;BME280;7755;52.208;6.964;2022-10-29T00:40:35;101783.06;;;16.23;100.00
15308;BME280;7755;52.208;6.964;2022-10-29T00:44:38;101771.75;;;16.20;100.00
15308;BME280;7755;52.208;6.964;2022-10-29T00:48:44;101771.16;;;16.18;100.00
15308;BME280;7755;52.208;6.964;2022-10-29T00:52:48;101773.69;;;16.19;100.00
15308;BME280;7755;52.208;6.964;2022-10-29T00:56:53;101765.94;;;16.16;100.00
15308;BME280;7755;52.208;6.964;2022-10-29T01:00:56;101766.69;;;16.11;100.00
15308;BME280;7755;52.208;6.964;2022-10-29T01:05:00;101753.72;;;16.07;100.00
15308;BME280;7755;52.208;6.964;2022-10-29T01:09:03;101749.00;;;16.02;100.00
15308;BME280;7755;52.208;6.964;2022-10-29T01:13:11;101742.34;;;15.98;100.00
15308;BME280;7755;52.208;6.964;2022-10-29T01:17:23;101752.41;;;15.93;100.00
15308;BME280;7755;52.208;6.964;2022-10-29T01:21:37;101753.16;;;15.88;100.00
15308;BME280;7755;52.208;6.964;2022-10-29T01:26:05;101752.25;;;15.82;100.00
15308;BME280;7755;52.208;6.964;2022-10-29T01:30:16;101747.50;;;15.78;100.00
15308;BME280;7755;52.208;6.964;2022-10-29T01:34:26;101738.63;;;15.71;100.00
15308;BME280;7755;52.208;6.964;2022-10-29T01:38:33;101725.81;;;15.60;100.00
15308;BME280;7755;52.208;6.964;2022-10-29T01:42:39;101732.53;;;15.52;100.00
15308;BME280;7755;52.208;6.964;2022-10-29T01:46:50;101725.78;;;15.43;100.00
15308;BME280;7755;52.208;6.964;2022-10-29T01:50:57;101720.72;;;15.35;100.00
15308;BME280;7755;52.208;6.964;2022-10-29T01:55:01;101718.38;;;15.26;100.00
15308;BME280;7755;52.208;6.964;2022-10-29T01:59:06;101701.75;;;15.16;100.00
15308;BME280;7755;52.208;6.964;2022-10-29T02:03:16;101699.66;;;15.07;100.00
15308;BME280;7755;52.208;6.964;2022-10-29T02:07:31;101704.72;;;14.98;100.00
15308;BME280;7755;52.208;6.964;2022-10-29T02:11:41;101704.88;;;14.91;100.00
15308;BME280;7755;52.208;6.964;2022-10-29T02:15:47;101696.19;;;14.83;100.00
15308;BME280;7755;52.208;6.964;2022-10-29T02:19:50;101691.13;;;14.74;100.00
15308;BME280;7755;52.208;6.964;2022-10-29T02:23:53;101686.88;;;14.67;100.00
15308;BME280;7755;52.208;6.964;2022-10-29T02:27:55;101677.72;;;14.61;100.00
15308;BME280;7755;52.208;6.964;2022-10-29T02:31:57;101679.50;;;14.56;100.00
15308;BME280;7755;52.208;6.964;2022-10-29T02:35:59;101682.38;;;14.49;100.00
15308;BME280;7755;52.208;6.964;2022-10-29T02:40:03;101682.28;;;14.44;100.00
15308;BME280;7755;52.208;6.964;2022-10-29T02:44:04;101687.28;;;14.35;100.00
15308;BME280;7755;52.208;6.964;2022-10-29T02:48:06;101672.06;;;14.28;100.00
15308;BME280;7755;52.208;6.964;2022-10-29T02:52:08;101672.81;;;14.23;100.00
15308;BME280;7755;52.208;6.964;2022-10-29T02:56:11;101674.84;;;14.16;100.00
15308;BME280;7755;52.208;6.964;2022-10-29T03:00:14;101677.09;;;14.07;100.00
15308;BME280;7755;52.208;6.964;2022-10-29T03:04:16;101668.31;;;13.93;100.00
15308;BME280;7755;52.208;6.964;2022-10-29T03:08:18;101674.16;;;13.85;100.00
15308;BME280;7755;52.208;6.964;2022-10-29T03:12:21;101683.91;;;13.81;100.00
15308;BME280;7755;52.208;6.964;2022-10-29T03:16:22;101680.56;;;13.68;100.00
15308;BME280;7755;52.208;6.964;2022-10-29T03:20:24;101672.16;;;13.57;100.00
15308;BME280;7755;52.208;6.964;2022-10-29T03:24:26;101663.13;;;13.57;100.00
15308;BME280;7755;52.208;6.964;2022-10-29T03:28:29;101668.56;;;13.57;100.00
15308;BME280;7755;52.208;6.964;2022-10-29T03:32:31;101656.44;;;13.53;100.00
15308;BME280;7755;52.208;6.964;2022-10-29T03:36:32;101656.44;;;13.53;100.00
15308;BME280;7755;52.208;6.964;2022-10-29T03:40:34;101645.19;;;13.49;100.00
15308;BME280;7755;52.208;6.964;2022-10-29T03:44:37;101641.84;;;13.47;100.00
15308;BME280;7755;52.208;6.964;2022-10-29T03:48:39;101634.72;;;13.46;100.00
15308;BME280;7755;52.208;6.964;2022-10-29T03:52:41;101635.78;;;13.45;100.00
15308;BME280;7755;52.208;6.964;2022-10-29T03:56:43;101634.56;;;13.41;100.00
15308;BME280;7755;52.208;6.964;2022-10-29T04:00:54;101636.13;;;13.37;100.00
15308;BME280;7755;52.208;6.964;2022-10-29T04:04:55;101651.94;;;13.35;100.00
15308;BME280;7755;52.208;6.964;2022-10-29T04:08:57;101658.69;;;13.32;100.00
15308;BME280;7755;52.208;6.964;2022-10-29T04:12:59;101657.50;;;13.28;100.00
15308;BME280;7755;52.208;6.964;2022-10-29T04:17:02;101644.06;;;13.27;100.00
15308;BME280;7755;52.208;6.964;2022-10-29T04:21:04;101663.41;;;13.25;100.00
15308;BME280;7755;52.208;6.964;2022-10-29T04:25:06;101662.00;;;13.23;100.00
15308;BME280;7755;52.208;6.964;2022-10-29T04:29:09;101666.84;;;13.21;100.00
15308;BME280;7755;52.208;6.964;2022-10-29T04:33:12;101667.06;;;13.19;100.00
15308;BME280;7755;52.208;6.964;2022-10-29T04:37:14;101666.72;;;13.16;100.00
15308;BME280;7755;52.208;6.964;2022-10-29T04:41:16;101667.78;;;13.15;100.00
15308;BME280;7755;52.208;6.964;2022-10-29T04:45:18;101670.97;;;13.11;100.00
15308;BME280;7755;52.208;6.964;2022-10-29T04:49:21;101666.81;;;13.09;100.00
15308;BME280;7755;52.208;6.964;2022-10-29T04:53:22;101658.88;;;13.07;100.00
15308;BME280;7755;52.208;6.964;2022-10-29T04:57:24;101668.91;;;13.07;100.00
15308;BME280;7755;52.208;6.964;2022-10-29T05:01:26;101675.44;;;13.06;100.00
15308;BME280;7755;52.208;6.964;2022-10-29T05:05:29;101669.16;;;13.05;100.00
15308;BME280;7755;52.208;6.964;2022-10-29T05:09:31;101654.69;;;13.05;100.00
15308;BME280;7755;52.208;6.964;2022-10-29T05:13:33;101654.44;;;13.06;100.00
15308;BME280;7755;52.208;6.964;2022-10-29T05:17:35;101648.16;;;13.06;100.00
15308;BME280;7755;52.208;6.964;2022-10-29T05:21:39;101637.22;;;13.06;100.00
15308;BME280;7755;52.208;6.964;2022-10-29T05:25:41;101616.47;;;13.05;100.00
15308;BME280;7755;52.208;6.964;2022-10-29T05:29:43;101626.56;;;13.04;100.00
15308;BME280;7755;52.208;6.964;2022-10-29T05:33:45;101619.44;;;13.03;100.00
15308;BME280;7755;52.208;6.964;2022-10-29T05:37:50;101619.44;;;13.03;100.00
15308;BME280;7755;52.208;6.964;2022-10-29T05:41:52;101606.13;;;13.07;100.00
15308;BME280;7755;52.208;6.964;2022-10-29T05:45:54;101607.34;;;13.11;100.00
15308;BME280;7755;52.208;6.964;2022-10-29T05:49:56;101620.53;;;13.14;100.00
15308;BME280;7755;52.208;6.964;2022-10-29T05:53:59;101590.25;;;13.16;100.00
15308;BME280;7755;52.208;6.964;2022-10-29T05:58:02;101620.28;;;13.16;100.00
15308;BME280;7755;52.208;6.964;2022-10-29T06:02:04;101610.66;;;13.13;100.00
15308;BME280;7755;52.208;6.964;2022-10-29T06:06:06;101611.13;;;13.10;100.00
15308;BME280;7755;52.208;6.964;2022-10-29T06:10:10;101624.31;;;13.13;100.00
15308;BME280;7755;52.208;6.964;2022-10-29T06:14:11;101627.03;;;13.13;100.00
15308;BME280;7755;52.208;6.964;2022-10-29T06:18:13;101632.16;;;13.09;100.00
15308;BME280;7755;52.208;6.964;2022-10-29T06:22:15;101643.06;;;13.09;100.00
15308;BME280;7755;52.208;6.964;2022-10-29T06:26:18;101635.94;;;13.08;100.00
15308;BME280;7755;52.208;6.964;2022-10-29T06:30:20;101622.28;;;13.08;100.00
15308;BME280;7755;52.208;6.964;2022-10-29T06:34:22;101634.88;;;13.09;100.00
15308;BME280;7755;52.208;6.964;2022-10-29T06:38:23;101626.69;;;13.09;100.00
15308;BME280;7755;52.208;6.964;2022-10-29T06:42:26;101631.31;;;13.09;100.00
15308;BME280;7755;52.208;6.964;2022-10-29T06:46:28;101635.94;;;13.08;100.00
15308;BME280;7755;52.208;6.964;2022-10-29T06:50:30;101627.53;;;13.10;100.00
15308;BME280;7755;52.208;6.964;2022-10-29T06:54:32;101634.19;;;13.14;100.00
15308;BME280;7755;52.208;6.964;2022-10-29T06:58:35;101633.69;;;13.17;100.00
15308;BME280;7755;52.208;6.964;2022-10-29T07:02:37;101651.75;;;13.18;100.00
15308;BME280;7755;52.208;6.964;2022-10-29T07:06:38;101642.06;;;13.22;100.00
15308;BME280;7755;52.208;6.964;2022-10-29T07:10:40;101635.88;;;13.27;100.00
15308;BME280;7755;52.208;6.964;2022-10-29T07:14:43;101627.22;;;13.30;100.00
15308;BME280;7755;52.208;6.964;2022-10-29T07:18:45;101613.09;;;13.33;100.00
15308;BME280;7755;52.208;6.964;2022-10-29T07:22:47;101610.00;;;13.41;100.00
15308;BME280;7755;52.208;6.964;2022-10-29T07:26:48;101601.47;;;13.49;100.00
15308;BME280;7755;52.208;6.964;2022-10-29T07:30:56;101619.97;;;13.59;100.00
15308;BME280;7755;52.208;6.964;2022-10-29T07:34:58;101611.41;;;13.67;100.00
15308;BME280;7755;52.208;6.964;2022-10-29T07:39:00;101611.06;;;13.75;100.00
15308;BME280;7755;52.208;6.964;2022-10-29T07:43:03;101602.25;;;13.85;100.00
15308;BME280;7755;52.208;6.964;2022-10-29T07:47:06;101609.00;;;13.94;100.00
15308;BME280;7755;52.208;6.964;2022-10-29T07:51:08;101615.53;;;14.05;100.00
15308;BME280;7755;52.208;6.964;2022-10-29T07:55:09;101630.22;;;14.15;100.00
15308;BME280;7755;52.208;6.964;2022-10-29T07:59:11;101630.47;;;14.26;100.00
15308;BME280;7755;52.208;6.964;2022-10-29T08:03:16;101629.25;;;14.33;100.00
15308;BME280;7755;52.208;6.964;2022-10-29T08:07:18;101621.38;;;14.48;100.00
15308;BME280;7755;52.208;6.964;2022-10-29T08:11:19;101616.44;;;14.62;100.00
15308;BME280;7755;52.208;6.964;2022-10-29T08:15:21;101615.28;;;14.75;100.00
15308;BME280;7755;52.208;6.964;2022-10-29T08:19:25;101620.47;;;14.88;100.00
15308;BME280;7755;52.208;6.964;2022-10-29T08:23:29;101625.16;;;15.05;100.00
15308;BME280;7755;52.208;6.964;2022-10-29T08:27:31;101632.53;;;15.21;100.00
15308;BME280;7755;52.208;6.964;2022-10-29T08:31:32;101631.13;;;15.35;100.00
15308;BME280;7755;52.208;6.964;2022-10-29T08:35:35;101623.94;;;15.51;100.00
15308;BME280;7755;52.208;6.964;2022-10-29T08:39:37;101632.47;;;15.66;100.00
15308;BME280;7755;52.208;6.964;2022-10-29T08:43:59;101628.00;;;15.82;100.00
15308;BME280;7755;52.208;6.964;2022-10-29T08:48:19;101625.47;;;15.97;100.00
15308;BME280;7755;52.208;6.964;2022-10-29T08:52:26;101608.38;;;16.12;100.00
15308;BME280;7755;52.208;6.964;2022-10-29T08:56:32;101611.00;;;16.24;100.00
15308;BME280;7755;52.208;6.964;2022-10-29T09:00:36;101605.69;;;16.39;100.00
15308;BME280;7755;52.208;6.964;2022-10-29T09:04:43;101606.38;;;16.51;100.00
15308;BME280;7755;52.208;6.964;2022-10-29T09:08:59;101603.81;;;16.67;100.00
15308;BME280;7755;52.208;6.964;2022-10-29T09:13:17;101586.41;;;16.83;100.00
15308;BME280;7755;52.208;6.964;2022-10-29T09:17:30;101582.97;;;16.98;100.00
15308;BME280;7755;52.208;6.964;2022-10-29T09:21:44;101587.75;;;17.12;100.00
15308;BME280;7755;52.208;6.964;2022-10-29T09:25:56;101578.53;;;17.29;100.00
15308;BME280;7755;52.208;6.964;2022-10-29T09:30:04;101567.38;;;17.45;100.00
15308;BME280;7755;52.208;6.964;2022-10-29T09:34:12;101555.38;;;17.62;100.00
15308;BME280;7755;52.208;6.964;2022-10-29T09:38:19;101551.09;;;17.81;100.00
15308;BME280;7755;52.208;6.964;2022-10-29T09:42:33;101548.69;;;18.00;100.00
15308;BME280;7755;52.208;6.964;2022-10-29T09:46:46;101551.78;;;18.19;100.00
15308;BME280;7755;52.208;6.964;2022-10-29T09:51:00;101553.47;;;18.35;100.00
15308;BME280;7755;52.208;6.964;2022-10-29T09:55:16;101560.16;;;18.49;100.00
15308;BME280;7755;52.208;6.964;2022-10-29T09:59:24;101564.28;;;18.62;100.00
15308;BME280;7755;52.208;6.964;2022-10-29T10:03:33;101565.44;;;18.76;100.00
15308;BME280;7755;52.208;6.964;2022-10-29T10:07:38;101549.19;;;18.85;100.00
15308;BME280;7755;52.208;6.964;2022-10-29T10:11:42;101535.13;;;18.92;100.00
15308;BME280;7755;52.208;6.964;2022-10-29T10:15:53;101542.81;;;19.10;100.00
15308;BME280;7755;52.208;6.964;2022-10-29T10:19:56;101540.88;;;19.26;100.00
15308;BME280;7755;52.208;6.964;2022-10-29T10:23:59;101539.75;;;19.47;100.00
15308;BME280;7755;52.208;6.964;2022-10-29T10:28:26;101538.91;;;19.62;100.00
15308;BME280;7755;52.208;6.964;2022-10-29T10:32:31;101530.31;;;19.74;100.00
15308;BME280;7755;52.208;6.964;2022-10-29T10:36:38;101530.53;;;19.87;100.00
15308;BME280;7755;52.208;6.964;2022-10-29T10:40:55;101522.47;;;19.96;100.00
15308;BME280;7755;52.208;6.964;2022-10-29T10:45:02;101523.00;;;20.03;100.00
15308;BME280;7755;52.208;6.964;2022-10-29T10:49:13;101524.31;;;20.16;100.00
15308;BME280;7755;52.208;6.964;2022-10-29T10:53:18;101519.56;;;20.27;100.00
15308;BME280;7755;52.208;6.964;2022-10-29T10:57:23;101509.56;;;20.36;100.00
15308;BME280;7755;52.208;6.964;2022-10-29T11:01:30;101490.81;;;20.33;100.00
15308;BME280;7755;52.208;6.964;2022-10-29T11:05:36;101491.31;;;20.40;100.00
15308;BME280;7755;52.208;6.964;2022-10-29T11:09:44;101496.81;;;20.40;100.00
15308;BME280;7755;52.208;6.964;2022-10-29T11:13:48;101484.38;;;20.48;100.00
15308;BME280;7755;52.208;6.964;2022-10-29T11:17:53;101491.84;;;20.47;100.00
15308;BME280;7755;52.208;6.964;2022-10-29T11:22:07;101476.88;;;20.53;100.00
15308;BME280;7755;52.208;6.964;2022-10-29T11:26:16;101487.59;;;20.60;100.00
15308;BME280;7755;52.208;6.964;2022-10-29T11:30:18;101498.06;;;20.63;100.00
15308;BME280;7755;52.208;6.964;2022-10-29T11:34:24;101485.00;;;20.74;100.00
15308;BME280;7755;52.208;6.964;2022-10-29T11:38:36;101488.25;;;20.81;100.00
15308;BME280;7755;52.208;6.964;2022-10-29T11:42:41;101479.53;;;20.92;97.84
15308;BME280;7755;52.208;6.964;2022-10-29T11:46:53;101472.28;;;21.02;96.77
15308;BME280;7755;52.208;6.964;2022-10-29T11:51:03;101467.72;;;21.16;95.86
15308;BME280;7755;52.208;6.964;2022-10-29T11:55:25;101465.91;;;21.30;94.43
15308;BME280;7755;52.208;6.964;2022-10-29T11:59:39;101467.72;;;21.40;93.04
15308;BME280;7755;52.208;6.964;2022-10-29T12:03:53;101462.44;;;21.43;92.29
15308;BME280;7755;52.208;6.964;2022-10-29T12:08:10;101448.25;;;21.50;92.45
15308;BME280;7755;52.208;6.964;2022-10-29T12:12:20;101448.94;;;21.61;92.73
15308;BME280;7755;52.208;6.964;2022-10-29T12:16:32;101445.22;;;21.70;91.97
15308;BME280;7755;52.208;6.964;2022-10-29T12:20:43;101437.81;;;21.85;91.66
15308;BME280;7755;52.208;6.964;2022-10-29T12:24:57;101434.75;;;22.05;89.48
15308;BME280;7755;52.208;6.964;2022-10-29T12:29:11;101430.38;;;22.23;87.90
15308;BME280;7755;52.208;6.964;2022-10-29T12:33:20;101419.56;;;22.40;85.43
15308;BME280;7755;52.208;6.964;2022-10-29T12:37:31;101414.34;;;22.52;84.35
15308;BME280;7755;52.208;6.964;2022-10-29T12:41:41;101418.47;;;22.55;83.59
15308;BME280;7755;52.208;6.964;2022-10-29T12:45:50;101404.44;;;22.65;83.57
15308;BME280;7755;52.208;6.964;2022-10-29T12:50:03;101403.22;;;22.71;82.44
15308;BME280;7755;52.208;6.964;2022-10-29T12:54:30;101392.31;;;22.75;82.44
15308;BME280;7755;52.208;6.964;2022-10-29T12:58:48;101389.78;;;22.78;82.34
15308;BME280;7755;52.208;6.964;2022-10-29T13:02:54;101391.31;;;22.84;82.75
15308;BME280;7755;52.208;6.964;2022-10-29T13:07:01;101388.59;;;22.98;81.74
15308;BME280;7755;52.208;6.964;2022-10-29T13:11:20;101377.09;;;23.05;81.57
15308;BME280;7755;52.208;6.964;2022-10-29T13:15:28;101372.28;;;23.10;80.16
15308;BME280;7755;52.208;6.964;2022-10-29T13:19:42;101370.09;;;23.21;79.37
15308;BME280;7755;52.208;6.964;2022-10-29T13:24:00;101365.97;;;23.32;79.56
15308;BME280;7755;52.208;6.964;2022-10-29T13:28:46;101370.50;;;23.28;77.67
15308;BME280;7755;52.208;6.964;2022-10-29T13:32:49;101368.44;;;23.20;77.90
15308;BME280;7755;52.208;6.964;2022-10-29T13:36:52;101366.31;;;23.17;76.67
15308;BME280;7755;52.208;6.964;2022-10-29T13:41:15;101365.59;;;23.11;77.41
15308;BME280;7755;52.208;6.964;2022-10-29T13:45:20;101361.25;;;23.19;77.96
15308;BME280;7755;52.208;6.964;2022-10-29T13:49:25;101356.31;;;23.30;77.09
15308;BME280;7755;52.208;6.964;2022-10-29T13:53:35;101357.03;;;23.35;77.30
15308;BME280;7755;52.208;6.964;2022-10-29T13:57:45;101350.66;;;23.35;77.10
15308;BME280;7755;52.208;6.964;2022-10-29T14:02:00;101348.81;;;23.30;77.47
15308;BME280;7755;52.208;6.964;2022-10-29T14:06:07;101346.66;;;23.27;77.47
15308;BME280;7755;52.208;6.964;2022-10-29T14:10:17;101343.06;;;23.27;77.47
15308;BME280;7755;52.208;6.964;2022-10-29T14:14:25;101349.75;;;23.26;77.68
15308;BME280;7755;52.208;6.964;2022-10-29T14:18:30;101347.00;;;23.12;77.95
15308;BME280;7755;52.208;6.964;2022-10-29T14:22:35;101341.13;;;23.00;78.17
15308;BME280;7755;52.208;6.964;2022-10-29T14:26:41;101336.09;;;22.88;78.85
15308;BME280;7755;52.208;6.964;2022-10-29T14:30:45;101332.38;;;22.79;79.35
15308;BME280;7755;52.208;6.964;2022-10-29T14:34:48;101327.53;;;22.71;79.39
15308;BME280;7755;52.208;6.964;2022-10-29T14:38:52;101328.47;;;22.66;79.98
15308;BME280;7755;52.208;6.964;2022-10-29T14:42:56;101320.63;;;22.54;80.35
15308;BME280;7755;52.208;6.964;2022-10-29T14:47:02;101336.34;;;22.45;80.37
15308;BME280;7755;52.208;6.964;2022-10-29T14:51:05;101326.28;;;22.36;81.45
15308;BME280;7755;52.208;6.964;2022-10-29T14:55:13;101326.94;;;22.27;82.87
15308;BME280;7755;52.208;6.964;2022-10-29T14:59:21;101333.69;;;22.21;83.36
15308;BME280;7755;52.208;6.964;2022-10-29T15:03:26;101322.19;;;22.14;84.01
15308;BME280;7755;52.208;6.964;2022-10-29T15:07:31;101306.63;;;21.99;84.54
15308;BME280;7755;52.208;6.964;2022-10-29T15:11:36;101313.47;;;21.88;86.12
15308;BME280;7755;52.208;6.964;2022-10-29T15:15:50;101313.94;;;21.76;86.52
15308;BME280;7755;52.208;6.964;2022-10-29T15:19:55;101308.25;;;21.68;86.93
15308;BME280;7755;52.208;6.964;2022-10-29T15:24:01;101309.03;;;21.55;87.56
15308;BME280;7755;52.208;6.964;2022-10-29T15:28:08;101311.34;;;21.47;88.46
15308;BME280;7755;52.208;6.964;2022-10-29T15:32:14;101304.28;;;21.36;88.53
15308;BME280;7755;52.208;6.964;2022-10-29T15:36:17;101305.50;;;21.25;89.26
15308;BME280;7755;52.208;6.964;2022-10-29T15:40:21;101302.59;;;21.16;89.15
15308;BME280;7755;52.208;6.964;2022-10-29T15:44:29;101300.81;;;21.07;89.79
15308;BME280;7755;52.208;6.964;2022-10-29T15:48:35;101300.41;;;20.94;90.26
15308;BME280;7755;52.208;6.964;2022-10-29T15:52:41;101294.97;;;20.84;90.59
15308;BME280;7755;52.208;6.964;2022-10-29T15:56:44;101300.34;;;20.76;90.67
15308;BME280;7755;52.208;6.964;2022-10-29T16:00:46;101292.72;;;20.67;91.65
15308;BME280;7755;52.208;6.964;2022-10-29T16:04:49;101291.69;;;20.58;92.05
15308;BME280;7755;52.208;6.964;2022-10-29T16:08:54;101285.16;;;20.49;92.57
15308;BME280;7755;52.208;6.964;2022-10-29T16:12:58;101287.72;;;20.40;93.05
15308;BME280;7755;52.208;6.964;2022-10-29T16:17:00;101288.94;;;20.29;93.49
15308;BME280;7755;52.208;6.964;2022-10-29T16:21:05;101290.69;;;20.20;94.18
15308;BME280;7755;52.208;6.964;2022-10-29T16:25:17;101298.53;;;20.08;94.91
15308;BME280;7755;52.208;6.964;2022-10-29T16:29:20;101287.84;;;19.96;95.74
15308;BME280;7755;52.208;6.964;2022-10-29T16:33:23;101282.13;;;19.87;96.16
15308;BME280;7755;52.208;6.964;2022-10-29T16:37:27;101287.47;;;19.79;96.85
15308;BME280;7755;52.208;6.964;2022-10-29T16:41:29;101292.50;;;19.67;97.70
15308;BME280;7755;52.208;6.964;2022-10-29T16:45:31;101290.06;;;19.55;98.59
15308;BME280;7755;52.208;6.964;2022-10-29T16:49:33;101285.19;;;19.42;99.43
15308;BME280;7755;52.208;6.964;2022-10-29T16:53:36;101284.47;;;19.26;100.00
15308;BME280;7755;52.208;6.964;2022-10-29T16:57:40;101269.63;;;19.17;100.00
15308;BME280;7755;52.208;6.964;2022-10-29T17:01:42;101271.03;;;19.09;100.00
15308;BME280;7755;52.208;6.964;2022-10-29T17:05:45;101268.59;;;19.02;100.00
15308;BME280;7755;52.208;6.964;2022-10-29T17:09:48;101263.38;;;18.96;100.00
15308;BME280;7755;52.208;6.964;2022-10-29T17:13:50;101271.97;;;18.89;100.00
15308;BME280;7755;52.208;6.964;2022-10-29T17:17:52;101276.13;;;18.81;100.00
15308;BME280;7755;52.208;6.964;2022-10-29T17:21:55;101263.75;;;18.74;100.00
15308;BME280;7755;52.208;6.964;2022-10-29T17:26:00;101256.88;;;18.61;100.00
15308;BME280;7755;52.208;6.964;2022-10-29T17:30:02;101259.94;;;18.54;100.00
15308;BME280;7755;52.208;6.964;2022-10-29T17:34:05;101257.47;;;18.48;100.00
15308;BME280;7755;52.208;6.964;2022-10-29T17:38:07;101254.47;;;18.39;100.00
15308;BME280;7755;52.208;6.964;2022-10-29T17:42:11;101256.69;;;18.32;100.00
15308;BME280;7755;52.208;6.964;2022-10-29T17:46:12;101257.81;;;18.26;100.00
15308;BME280;7755;52.208;6.964;2022-10-29T17:50:17;101267.72;;;18.22;100.00
15308;BME280;7755;52.208;6.964;2022-10-29T17:54:18;101265.25;;;18.15;100.00
15308;BME280;7755;52.208;6.964;2022-10-29T17:58:22;101257.56;;;18.07;100.00
15308;BME280;7755;52.208;6.964;2022-10-29T18:02:24;101257.59;;;18.02;100.00
15308;BME280;7755;52.208;6.964;2022-10-29T18:06:27;101262.25;;;18.01;100.00
15308;BME280;7755;52.208;6.964;2022-10-29T18:10:30;101266.94;;;18.01;100.00
15308;BME280;7755;52.208;6.964;2022-10-29T18:14:34;101256.47;;;17.98;100.00
15308;BME280;7755;52.208;6.964;2022-10-29T18:18:38;101252.38;;;17.95;100.00
15308;BME280;7755;52.208;6.964;2022-10-29T18:22:41;101261.97;;;17.88;100.00
15308;BME280;7755;52.208;6.964;2022-10-29T18:26:47;101260.06;;;17.83;100.00
15308;BME280;7755;52.208;6.964;2022-10-29T18:30:51;101252.34;;;17.80;100.00
15308;BME280;7755;52.208;6.964;2022-10-29T18:34:53;101250.16;;;17.77;100.00
15308;BME280;7755;52.208;6.964;2022-10-29T18:39:00;101248.50;;;17.71;100.00
15308;BME280;7755;52.208;6.964;2022-10-29T18:43:14;101241.91;;;17.62;100.00
15308;BME280;7755;52.208;6.964;2022-10-29T18:47:23;101248.22;;;17.57;100.00
15308;BME280;7755;52.208;6.964;2022-10-29T18:51:27;101243.53;;;17.58;100.00
15308;BME280;7755;52.208;6.964;2022-10-29T18:55:57;101247.91;;;17.54;100.00
15308;BME280;7755;52.208;6.964;2022-10-29T18:59:59;101248.19;;;17.52;100.00
15308;BME280;7755;52.208;6.964;2022-10-29T19:04:05;101243.50;;;17.47;100.00
15308;BME280;7755;52.208;6.964;2022-10-29T19:08:09;101233.34;;;17.43;100.00
15308;BME280;7755;52.208;6.964;2022-10-29T19:12:11;101224.25;;;17.37;100.00
15308;BME280;7755;52.208;6.964;2022-10-29T19:16:13;101222.34;;;17.38;100.00
15308;BME280;7755;52.208;6.964;2022-10-29T19:20:18;101226.22;;;17.42;100.00
15308;BME280;7755;52.208;6.964;2022-10-29T19:24:22;101222.88;;;17.40;100.00
15308;BME280;7755;52.208;6.964;2022-10-29T19:28:38;101220.97;;;17.40;100.00
15308;BME280;7755;52.208;6.964;2022-10-29T19:32:56;101219.06;;;17.36;100.00
15308;BME280;7755;52.208;6.964;2022-10-29T19:37:12;101206.13;;;17.36;100.00
15308;BME280;7755;52.208;6.964;2022-10-29T19:41:15;101183.56;;;17.39;100.00
15308;BME280;7755;52.208;6.964;2022-10-29T19:45:22;101195.97;;;17.42;100.00
15308;BME280;7755;52.208;6.964;2022-10-29T19:49:25;101211.63;;;17.46;100.00
15308;BME280;7755;52.208;6.964;2022-10-29T19:53:28;101246.81;;;17.50;100.00
15308;BME280;7755;52.208;6.964;2022-10-29T19:57:40;101265.50;;;17.53;100.00
15308;BME280;7755;52.208;6.964;2022-10-29T20:01:43;101255.88;;;17.60;100.00
15308;BME280;7755;52.208;6.964;2022-10-29T20:05:53;101249.56;;;17.60;100.00
15308;BME280;7755;52.208;6.964;2022-10-29T20:09:57;101246.84;;;17.65;100.00
15308;BME280;7755;52.208;6.964;2022-10-29T20:14:05;101245.19;;;17.64;100.00
15308;BME280;7755;52.208;6.964;2022-10-29T20:18:20;101245.19;;;17.59;100.00
15308;BME280;7755;52.208;6.964;2022-10-29T20:22:35;101239.41;;;17.55;100.00
15308;BME280;7755;52.208;6.964;2022-10-29T20:26:46;101237.47;;;17.51;100.00
15308;BME280;7755;52.208;6.964;2022-10-29T20:30:50;101229.22;;;17.45;100.00
15308;BME280;7755;52.208;6.964;2022-10-29T20:35:10;101238.56;;;17.39;100.00
15308;BME280;7755;52.208;6.964;2022-10-29T20:39:33;101240.47;;;17.29;100.00
15308;BME280;7755;52.208;6.964;2022-10-29T20:43:36;101236.91;;;17.28;100.00
15308;BME280;7755;52.208;6.964;2022-10-29T20:47:38;101243.47;;;17.27;100.00
15308;BME280;7755;52.208;6.964;2022-10-29T20:51:40;101248.44;;;17.25;100.00
15308;BME280;7755;52.208;6.964;2022-10-29T20:55:41;101248.97;;;17.27;100.00
15308;BME280;7755;52.208;6.964;2022-10-29T20:59:44;101258.34;;;17.31;100.00
15308;BME280;7755;52.208;6.964;2022-10-29T21:03:47;101260.25;;;17.31;100.00
15308;BME280;7755;52.208;6.964;2022-10-29T21:07:49;101261.63;;;17.33;100.00
15308;BME280;7755;52.208;6.964;2022-10-29T21:11:51;101256.44;;;17.37;100.00
15308;BME280;7755;52.208;6.964;2022-10-29T21:15:54;101269.06;;;17.38;100.00
15308;BME280;7755;52.208;6.964;2022-10-29T21:19:56;101267.69;;;17.40;100.00
15308;BME280;7755;52.208;6.964;2022-10-29T21:23:58;101276.22;;;17.44;100.00
15308;BME280;7755;52.208;6.964;2022-10-29T21:27:59;101263.84;;;17.46;100.00